createdAt,value
2023-05-21T00:01:56.778Z,12.60
2023-05-21T00:04:25.756Z,12.60
2023-05-21T00:06:52.712Z,12.50
2023-05-21T00:09:19.700Z,12.50
2023-05-21T00:11:46.639Z,12.50
2023-05-21T00:14:13.617Z,12.40
2023-05-21T00:16:40.928Z,12.40
2023-05-21T00:19:08.395Z,12.30
2023-05-21T00:21:35.330Z,12.30
2023-05-21T00:24:02.284Z,12.30
2023-05-21T00:26:29.263Z,12.30
2023-05-21T00:28:56.590Z,12.30
2023-05-21T00:31:23.579Z,12.30
2023-05-21T00:33:50.899Z,12.30
2023-05-21T00:36:17.932Z,12.30
2023-05-21T00:38:45.967Z,12.30
2023-05-21T00:41:13.773Z,12.30
2023-05-21T00:43:40.769Z,12.20
2023-05-21T00:46:09.576Z,12.20
2023-05-21T00:48:36.652Z,12.10
2023-05-21T00:51:04.124Z,12.10
2023-05-21T00:53:31.603Z,12.10
2023-05-21T00:55:58.654Z,12.00
2023-05-21T00:58:25.834Z,12.00
2023-05-21T01:00:55.955Z,11.90
2023-05-21T01:03:23.922Z,11.90
2023-05-21T01:05:53.411Z,11.90
2023-05-21T01:08:21.917Z,11.90
2023-05-21T01:10:50.129Z,11.80
2023-05-21T01:13:17.892Z,11.90
2023-05-21T01:15:46.132Z,11.80
2023-05-21T01:18:14.478Z,11.90
2023-05-21T01:20:42.703Z,11.80
2023-05-21T01:23:09.875Z,11.90
2023-05-21T01:25:37.064Z,11.70
2023-05-21T01:28:04.292Z,11.70
2023-05-21T01:30:31.373Z,11.60
2023-05-21T01:33:15.371Z,11.60
2023-05-21T01:35:50.258Z,11.50
2023-05-21T01:38:42.929Z,11.50
2023-05-21T01:41:14.333Z,11.50
2023-05-21T01:43:44.366Z,11.40
2023-05-21T01:46:16.269Z,11.30
2023-05-21T01:48:44.557Z,11.20
2023-05-21T01:51:12.268Z,11.30
2023-05-21T01:53:40.757Z,11.30
2023-05-21T01:56:08.064Z,11.30
2023-05-21T01:58:35.076Z,11.20
2023-05-21T02:01:02.942Z,11.20
2023-05-21T02:03:31.344Z,11.20
2023-05-21T02:05:58.597Z,11.20
2023-05-21T02:08:27.322Z,11.20
2023-05-21T02:10:54.473Z,11.10
2023-05-21T02:13:25.155Z,11.10
2023-05-21T02:15:54.946Z,11.10
2023-05-21T02:18:22.279Z,11.00
2023-05-21T02:20:49.211Z,11.00
2023-05-21T02:23:16.304Z,11.10
2023-05-21T02:25:44.047Z,11.10
2023-05-21T02:28:10.967Z,11.20
2023-05-21T02:30:37.921Z,11.10
2023-05-21T02:33:04.924Z,11.10
2023-05-21T02:35:32.445Z,11.10
2023-05-21T02:37:59.633Z,11.10
2023-05-21T02:40:26.830Z,11.20
2023-05-21T02:42:53.823Z,11.10
2023-05-21T02:45:21.051Z,11.20
2023-05-21T02:47:48.036Z,11.20
2023-05-21T02:50:15.351Z,11.10
2023-05-21T02:52:42.363Z,11.20
2023-05-21T02:55:09.955Z,11.10
2023-05-21T02:57:36.934Z,11.10
2023-05-21T03:00:06.243Z,11.20
2023-05-21T03:02:33.386Z,11.20
2023-05-21T03:05:00.872Z,11.20
2023-05-21T03:07:28.026Z,11.20
2023-05-21T03:09:55.012Z,11.30
2023-05-21T03:12:21.962Z,11.30
2023-05-21T03:14:51.654Z,11.20
2023-05-21T03:17:19.044Z,11.20
2023-05-21T03:19:45.961Z,11.20
2023-05-21T03:22:12.906Z,11.20
2023-05-21T03:24:40.004Z,11.20
2023-05-21T03:27:07.550Z,11.20
2023-05-21T03:29:36.329Z,11.30
2023-05-21T03:32:03.796Z,11.30
2023-05-21T03:34:31.312Z,11.30
2023-05-21T03:36:58.392Z,11.30
2023-05-21T03:39:25.570Z,11.30
2023-05-21T03:41:52.461Z,11.30
2023-05-21T03:44:19.497Z,11.30
2023-05-21T03:46:46.520Z,11.30
2023-05-21T03:49:14.384Z,11.40
2023-05-21T03:51:41.406Z,11.30
2023-05-21T03:54:08.325Z,11.40
2023-05-21T03:56:35.202Z,11.40
2023-05-21T03:59:02.408Z,11.50
2023-05-21T04:01:29.442Z,11.50
2023-05-21T04:03:56.634Z,11.60
2023-05-21T04:06:23.752Z,11.70
2023-05-21T04:08:51.525Z,11.70
2023-05-21T04:11:18.451Z,11.80
2023-05-21T04:13:46.242Z,11.90
2023-05-21T04:16:14.884Z,11.90
2023-05-21T04:18:43.568Z,12.10
2023-05-21T04:21:12.987Z,12.10
2023-05-21T04:23:40.277Z,12.20
2023-05-21T04:26:07.997Z,12.30
2023-05-21T04:28:35.629Z,12.40
2023-05-21T04:31:02.900Z,12.50
2023-05-21T04:33:30.536Z,12.60
2023-05-21T04:35:58.077Z,12.60
2023-05-21T04:38:26.109Z,12.70
2023-05-21T04:40:53.558Z,12.70
2023-05-21T04:43:27.557Z,12.80
2023-05-21T04:45:55.190Z,12.90
2023-05-21T04:48:27.228Z,13.00
2023-05-21T04:50:54.457Z,13.10
2023-05-21T04:53:22.316Z,13.20
2023-05-21T04:55:49.334Z,13.30
2023-05-21T04:58:18.148Z,13.40
2023-05-21T05:00:51.691Z,13.50
2023-05-21T05:03:19.188Z,13.60
2023-05-21T05:05:47.594Z,13.60
2023-05-21T05:08:15.942Z,13.70
2023-05-21T05:10:43.298Z,13.80
2023-05-21T05:13:10.371Z,13.90
2023-05-21T05:15:37.518Z,14.00
2023-05-21T05:18:04.874Z,14.10
2023-05-21T05:20:31.833Z,14.20
2023-05-21T05:22:58.762Z,14.30
2023-05-21T05:25:26.390Z,14.40
2023-05-21T05:27:53.334Z,14.50
2023-05-21T05:30:21.010Z,14.60
2023-05-21T05:32:48.063Z,14.80
2023-05-21T05:35:18.056Z,14.90
2023-05-21T05:37:44.978Z,15.00
2023-05-21T05:40:12.206Z,15.10
2023-05-21T05:42:39.158Z,15.20
2023-05-21T05:45:06.825Z,15.30
2023-05-21T05:47:33.822Z,15.40
2023-05-21T05:50:00.905Z,15.40
2023-05-21T05:52:27.922Z,15.50
2023-05-21T05:54:54.901Z,15.60
2023-05-21T05:57:22.148Z,15.70
2023-05-21T05:59:49.061Z,15.80
2023-05-21T06:02:17.342Z,16.00
2023-05-21T06:04:44.515Z,16.10
2023-05-21T06:07:11.562Z,16.20
2023-05-21T06:09:39.175Z,16.20
2023-05-21T06:12:07.230Z,16.30
2023-05-21T06:14:34.236Z,16.50
2023-05-21T06:17:01.220Z,16.50
2023-05-21T06:19:28.303Z,16.60
2023-05-21T06:21:55.591Z,16.70
2023-05-21T06:24:22.594Z,16.90
2023-05-21T06:26:49.584Z,16.90
2023-05-21T06:29:17.191Z,17.00
2023-05-21T06:31:45.671Z,17.20
2023-05-21T06:34:12.672Z,17.30
2023-05-21T06:36:39.674Z,17.40
2023-05-21T06:39:07.039Z,17.60
2023-05-21T06:41:34.132Z,17.70
2023-05-21T06:44:01.148Z,17.90
2023-05-21T06:46:28.223Z,18.00
2023-05-21T06:48:55.256Z,18.20
2023-05-21T06:51:22.187Z,18.40
2023-05-21T06:53:49.360Z,18.80
2023-05-21T06:56:16.330Z,19.60
2023-05-21T06:58:43.260Z,20.70
2023-05-21T07:01:10.356Z,21.90
2023-05-21T07:03:37.563Z,22.60
2023-05-21T07:06:04.630Z,23.30
2023-05-21T07:08:31.771Z,24.10
2023-05-21T07:10:58.944Z,25.10
2023-05-21T07:13:26.085Z,25.60
2023-05-21T07:15:53.019Z,25.00
2023-05-21T07:18:19.978Z,25.10
2023-05-21T07:20:46.873Z,25.00
2023-05-21T07:23:13.861Z,25.00
2023-05-21T07:25:40.955Z,24.60
2023-05-21T07:28:07.882Z,24.40
2023-05-21T07:30:34.872Z,24.50
2023-05-21T07:33:01.862Z,23.90
2023-05-21T07:35:29.293Z,23.50
2023-05-21T07:37:56.502Z,23.90
2023-05-21T07:40:23.674Z,24.20
2023-05-21T07:42:50.862Z,24.20
2023-05-21T07:45:18.031Z,24.20
2023-05-21T07:47:46.900Z,24.40
2023-05-21T07:50:14.974Z,25.30
2023-05-21T07:52:42.010Z,24.50
2023-05-21T07:55:10.213Z,24.40
2023-05-21T07:57:37.407Z,24.40
2023-05-21T08:00:08.208Z,24.80
2023-05-21T08:02:35.343Z,25.00
2023-05-21T08:05:02.451Z,26.00
2023-05-21T08:07:29.512Z,25.20
2023-05-21T08:09:56.630Z,25.40
2023-05-21T08:12:23.696Z,25.50
2023-05-21T08:14:50.637Z,25.10
2023-05-21T08:17:17.657Z,24.40
2023-05-21T08:19:44.667Z,24.40
2023-05-21T08:22:11.691Z,24.90
2023-05-21T08:24:38.591Z,25.50
2023-05-21T08:27:05.775Z,25.50
2023-05-21T08:29:33.282Z,25.50
2023-05-21T08:32:00.346Z,25.70
2023-05-21T08:34:27.397Z,26.00
2023-05-21T08:36:54.415Z,27.00
2023-05-21T08:39:21.718Z,26.90
2023-05-21T08:41:53.273Z,27.20
2023-05-21T08:44:22.919Z,27.10
2023-05-21T08:46:51.714Z,26.90
2023-05-21T08:49:26.371Z,27.40
2023-05-21T08:51:54.840Z,27.00
2023-05-21T08:54:23.063Z,26.60
2023-05-21T08:56:50.300Z,26.90
2023-05-21T08:59:19.990Z,26.30
2023-05-21T09:01:50.149Z,26.50
2023-05-21T09:04:21.228Z,27.00
2023-05-21T09:06:48.925Z,27.20
2023-05-21T09:09:40.542Z,26.70
2023-05-21T09:12:08.673Z,28.00
2023-05-21T09:14:37.389Z,28.00
2023-05-21T09:17:04.626Z,27.40
2023-05-21T09:19:32.491Z,27.30
2023-05-21T09:22:05.436Z,26.70
2023-05-21T09:24:34.447Z,26.60
2023-05-21T09:27:03.130Z,26.10
2023-05-21T09:29:30.112Z,26.40
2023-05-21T09:31:57.173Z,26.90
2023-05-21T09:34:25.630Z,27.60
2023-05-21T09:36:56.438Z,28.00
2023-05-21T09:39:30.227Z,27.90
2023-05-21T09:41:57.987Z,27.90
2023-05-21T09:44:24.960Z,27.70
2023-05-21T09:46:57.839Z,27.30
2023-05-21T09:49:26.589Z,27.20
2023-05-21T09:51:59.559Z,27.40
2023-05-21T09:54:32.498Z,26.80
2023-05-21T09:57:02.672Z,27.30
2023-05-21T09:59:37.040Z,27.10
2023-05-21T10:02:04.148Z,26.10
2023-05-21T10:04:32.131Z,26.30
2023-05-21T10:07:00.952Z,25.80
2023-05-21T10:09:29.783Z,25.60
2023-05-21T10:11:57.561Z,25.00
2023-05-21T10:14:27.902Z,25.50
2023-05-21T10:16:56.569Z,25.20
2023-05-21T10:19:25.018Z,24.80
2023-05-21T10:21:53.479Z,24.70
2023-05-21T10:24:20.943Z,23.90
2023-05-21T10:26:49.124Z,24.40
2023-05-21T10:29:18.891Z,24.40
2023-05-21T10:31:49.938Z,24.20
2023-05-21T10:34:17.631Z,24.00
2023-05-21T10:36:45.352Z,23.80
2023-05-21T10:39:14.829Z,23.70
2023-05-21T10:42:12.708Z,23.70
2023-05-21T10:44:54.410Z,23.20
2023-05-21T10:47:54.496Z,23.40
2023-05-21T10:50:41.064Z,23.00
2023-05-21T10:53:18.159Z,23.10
2023-05-21T10:55:48.348Z,23.00
2023-05-21T10:58:30.169Z,23.00
2023-05-21T11:00:59.169Z,22.70
2023-05-21T11:03:26.679Z,22.40
2023-05-21T11:05:57.154Z,22.60
2023-05-21T11:08:25.888Z,22.90
2023-05-21T11:10:54.930Z,23.10
2023-05-21T11:13:22.160Z,22.80
2023-05-21T11:15:58.497Z,22.90
2023-05-21T11:18:34.114Z,23.00
2023-05-21T11:21:14.416Z,23.10
2023-05-21T11:24:02.753Z,23.10
2023-05-21T11:26:52.330Z,23.20
2023-05-21T11:29:20.127Z,22.80
2023-05-21T11:31:49.289Z,22.10
2023-05-21T11:34:28.893Z,22.00
2023-05-21T11:37:23.382Z,21.90
2023-05-21T11:39:51.511Z,21.90
2023-05-21T11:42:31.929Z,22.30
2023-05-21T11:45:00.335Z,22.10
2023-05-21T11:47:28.876Z,22.20
2023-05-21T11:49:58.532Z,22.60
2023-05-21T11:52:27.022Z,22.60
2023-05-21T11:54:56.840Z,22.50
2023-05-21T11:57:30.692Z,22.40
2023-05-21T11:59:59.215Z,22.20
2023-05-21T12:02:28.668Z,22.20
2023-05-21T12:05:00.381Z,22.10
2023-05-21T12:07:31.377Z,22.10
2023-05-21T12:09:58.860Z,22.40
2023-05-21T12:12:35.293Z,22.20
2023-05-21T12:15:10.404Z,22.40
2023-05-21T12:17:37.459Z,22.40
2023-05-21T12:20:07.919Z,22.50
2023-05-21T12:22:34.839Z,22.40
2023-05-21T12:25:02.170Z,22.40
2023-05-21T12:27:31.931Z,22.40
2023-05-21T12:29:59.962Z,22.30
2023-05-21T12:32:28.534Z,22.40
2023-05-21T12:34:56.709Z,22.50
2023-05-21T12:37:25.649Z,22.30
2023-05-21T12:39:58.837Z,22.20
2023-05-21T12:42:30.841Z,22.40
2023-05-21T12:44:58.233Z,22.30
2023-05-21T12:47:26.809Z,22.20
2023-05-21T12:50:04.504Z,22.10
2023-05-21T12:52:31.540Z,22.00
2023-05-21T12:54:59.554Z,21.80
2023-05-21T12:57:28.499Z,22.00
2023-05-21T12:59:56.876Z,21.90
2023-05-21T13:02:47.942Z,21.80
2023-05-21T13:05:18.787Z,21.70
2023-05-21T13:07:51.666Z,21.70
2023-05-21T13:10:18.757Z,21.70
2023-05-21T13:12:46.213Z,21.30
2023-05-21T13:15:13.205Z,21.40
2023-05-21T13:17:40.216Z,21.30
2023-05-21T13:20:08.305Z,21.20
2023-05-21T13:22:39.142Z,21.10
2023-05-21T13:25:07.259Z,21.20
2023-05-21T13:27:34.261Z,21.20
2023-05-21T13:30:02.249Z,21.40
2023-05-21T13:32:29.384Z,21.40
2023-05-21T13:34:56.487Z,21.00
2023-05-21T13:37:23.441Z,20.90
2023-05-21T13:39:50.571Z,20.90
2023-05-21T13:42:17.580Z,20.80
2023-05-21T13:44:44.506Z,20.90
2023-05-21T13:47:12.214Z,20.90
2023-05-21T13:49:40.752Z,20.80
2023-05-21T13:52:08.686Z,20.60
2023-05-21T13:54:36.979Z,20.60
2023-05-21T13:57:04.138Z,20.40
2023-05-21T13:59:33.451Z,20.30
2023-05-21T14:02:01.206Z,20.30
2023-05-21T14:04:28.204Z,20.50
2023-05-21T14:06:55.621Z,20.50
2023-05-21T14:09:23.573Z,20.30
2023-05-21T14:11:50.960Z,20.30
2023-05-21T14:14:19.212Z,20.20
2023-05-21T14:16:47.420Z,20.20
2023-05-21T14:19:14.906Z,20.20
2023-05-21T14:21:42.204Z,20.30
2023-05-21T14:24:09.162Z,20.30
2023-05-21T14:26:40.103Z,20.50
2023-05-21T14:29:07.292Z,20.50
2023-05-21T14:31:34.358Z,20.40
2023-05-21T14:34:03.001Z,20.30
2023-05-21T14:36:31.187Z,20.30
2023-05-21T14:38:58.166Z,20.30
2023-05-21T14:41:28.474Z,20.40
2023-05-21T14:43:55.524Z,20.30
2023-05-21T14:46:22.568Z,20.30
2023-05-21T14:48:49.784Z,20.40
2023-05-21T14:51:16.906Z,20.40
2023-05-21T14:53:43.934Z,20.40
2023-05-21T14:56:11.001Z,20.40
2023-05-21T14:58:37.914Z,20.40
2023-05-21T15:01:05.300Z,20.50
2023-05-21T15:03:32.348Z,20.60
2023-05-21T15:05:59.338Z,20.60
2023-05-21T15:08:26.360Z,20.60
2023-05-21T15:10:53.310Z,20.60
2023-05-21T15:13:21.569Z,20.60
2023-05-21T15:15:49.552Z,20.60
2023-05-21T15:18:16.710Z,20.60
2023-05-21T15:20:44.725Z,20.70
2023-05-21T15:23:17.168Z,20.60
2023-05-21T15:25:45.642Z,20.60
2023-05-21T15:28:13.165Z,20.40
2023-05-21T15:30:40.429Z,20.30
2023-05-21T15:33:07.595Z,20.20
2023-05-21T15:35:38.412Z,20.10
2023-05-21T15:38:05.693Z,20.00
2023-05-21T15:40:34.152Z,20.00
2023-05-21T15:43:01.186Z,20.00
2023-05-21T15:45:28.120Z,20.10
2023-05-21T15:47:55.089Z,20.00
2023-05-21T15:50:22.095Z,19.90
2023-05-21T15:52:50.387Z,19.90
2023-05-21T15:55:19.389Z,19.80
2023-05-21T15:57:46.329Z,19.80
2023-05-21T16:00:13.770Z,19.80
2023-05-21T16:02:42.000Z,19.60
2023-05-21T16:05:09.777Z,19.70
2023-05-21T16:07:38.314Z,19.70
2023-05-21T16:10:06.396Z,19.60
2023-05-21T16:12:34.959Z,19.60
2023-05-21T16:15:01.922Z,19.60
2023-05-21T16:17:28.860Z,19.50
2023-05-21T16:19:55.845Z,19.40
2023-05-21T16:22:23.952Z,19.40
2023-05-21T16:24:51.045Z,19.50
2023-05-21T16:27:18.050Z,19.40
2023-05-21T16:29:45.034Z,19.30
2023-05-21T16:32:13.983Z,19.30
2023-05-21T16:34:41.878Z,19.20
2023-05-21T16:37:09.846Z,19.00
2023-05-21T16:39:37.410Z,19.00
2023-05-21T16:42:04.567Z,19.00
2023-05-21T16:44:32.345Z,19.00
2023-05-21T16:47:00.294Z,19.00
2023-05-21T16:49:27.741Z,19.10
2023-05-21T16:51:54.844Z,19.00
2023-05-21T16:54:21.967Z,19.00
2023-05-21T16:56:49.097Z,19.00
2023-05-21T16:59:27.934Z,19.00
2023-05-21T17:01:58.344Z,18.90
2023-05-21T17:04:44.403Z,18.80
2023-05-21T17:07:13.803Z,18.80
2023-05-21T17:09:40.856Z,18.70
2023-05-21T17:12:13.232Z,18.60
2023-05-21T17:14:45.649Z,18.60
2023-05-21T17:17:12.737Z,18.50
2023-05-21T17:19:44.627Z,18.50
2023-05-21T17:22:14.895Z,18.50
2023-05-21T17:24:44.515Z,18.40
2023-05-21T17:27:11.540Z,18.40
2023-05-21T17:29:38.826Z,18.30
2023-05-21T17:32:06.559Z,18.30
2023-05-21T17:34:33.510Z,18.20
2023-05-21T17:37:00.629Z,18.20
2023-05-21T17:39:27.614Z,18.10
2023-05-21T17:41:56.613Z,18.10
2023-05-21T17:44:23.731Z,18.10
2023-05-21T17:46:51.101Z,18.00
2023-05-21T17:49:18.742Z,18.00
2023-05-21T17:51:45.842Z,17.90
2023-05-21T17:54:12.734Z,17.90
2023-05-21T17:56:39.754Z,17.80
2023-05-21T17:59:11.421Z,17.70
2023-05-21T18:01:39.840Z,17.70
2023-05-21T18:04:12.326Z,17.70
2023-05-21T18:06:40.083Z,17.70
2023-05-21T18:09:15.377Z,17.60
2023-05-21T18:11:44.609Z,17.50
2023-05-21T18:14:11.679Z,17.50
2023-05-21T18:16:40.111Z,17.40
2023-05-21T18:19:07.248Z,17.30
2023-05-21T18:21:35.394Z,17.30
2023-05-21T18:24:03.112Z,17.20
2023-05-21T18:26:30.406Z,17.20
2023-05-21T18:28:58.467Z,17.10
2023-05-21T18:31:25.991Z,17.00
2023-05-21T18:33:52.935Z,16.90
2023-05-21T18:36:19.850Z,16.90
2023-05-21T18:38:47.050Z,16.80
2023-05-21T18:41:13.994Z,16.80
2023-05-21T18:43:41.763Z,16.70
2023-05-21T18:46:08.809Z,16.60
2023-05-21T18:48:35.907Z,16.60
2023-05-21T18:51:02.963Z,16.60
2023-05-21T18:53:29.928Z,16.50
2023-05-21T18:55:56.815Z,16.40
2023-05-21T18:58:23.841Z,16.40
2023-05-21T19:00:51.285Z,16.40
2023-05-21T19:03:18.539Z,16.40
2023-05-21T19:05:45.693Z,16.30
2023-05-21T19:08:12.700Z,16.30
2023-05-21T19:10:40.031Z,16.30
2023-05-21T19:13:07.291Z,16.30
2023-05-21T19:15:34.457Z,16.30
2023-05-21T19:18:01.915Z,16.40
2023-05-21T19:20:29.241Z,16.40
2023-05-21T19:22:56.277Z,16.40
2023-05-21T19:25:23.600Z,16.50
2023-05-21T19:27:50.833Z,16.50
2023-05-21T19:30:17.964Z,16.50
2023-05-21T19:32:46.081Z,16.50
2023-05-21T19:35:13.129Z,16.60
2023-05-21T19:37:40.093Z,16.60
2023-05-21T19:40:08.013Z,16.50
2023-05-21T19:42:35.002Z,16.50
2023-05-21T19:45:02.069Z,16.50
2023-05-21T19:47:30.886Z,16.40
2023-05-21T19:49:57.873Z,16.50
2023-05-21T19:52:24.883Z,16.40
2023-05-21T19:54:51.996Z,16.40
2023-05-21T19:57:19.158Z,16.30
2023-05-21T19:59:46.152Z,16.30
2023-05-21T20:02:15.231Z,16.30
2023-05-21T20:04:42.177Z,16.20
2023-05-21T20:07:09.178Z,16.20
2023-05-21T20:09:36.196Z,16.20
2023-05-21T20:12:03.568Z,16.10
2023-05-21T20:14:33.616Z,16.10
2023-05-21T20:17:05.829Z,16.10
2023-05-21T20:19:33.001Z,16.10
2023-05-21T20:22:00.064Z,16.10
2023-05-21T20:24:27.023Z,15.90
2023-05-21T20:26:55.020Z,15.80
2023-05-21T20:29:21.961Z,15.70
2023-05-21T20:31:48.897Z,15.60
2023-05-21T20:34:17.789Z,15.50
2023-05-21T20:36:44.860Z,15.40
2023-05-21T20:39:12.221Z,15.30
2023-05-21T20:41:39.645Z,15.10
2023-05-21T20:44:06.919Z,15.00
2023-05-21T20:46:37.996Z,14.90
2023-05-21T20:49:05.374Z,14.80
2023-05-21T20:51:32.394Z,14.80
2023-05-21T20:53:59.931Z,14.70
2023-05-21T20:56:40.921Z,14.60
2023-05-21T20:59:11.091Z,14.60
2023-05-21T21:01:39.412Z,14.60
2023-05-21T21:04:06.501Z,14.50
2023-05-21T21:06:34.380Z,14.40
2023-05-21T21:09:01.355Z,14.40
2023-05-21T21:11:28.353Z,14.30
2023-05-21T21:13:55.596Z,14.30
2023-05-21T21:16:22.665Z,14.30
2023-05-21T21:18:49.720Z,14.30
2023-05-21T21:21:16.696Z,14.30
2023-05-21T21:23:43.756Z,14.30
2023-05-21T21:26:10.689Z,14.20
2023-05-21T21:28:37.958Z,14.30
2023-05-21T21:31:05.014Z,14.30
2023-05-21T21:33:32.403Z,14.30
2023-05-21T21:36:00.569Z,14.30
2023-05-21T21:38:27.560Z,14.40
2023-05-21T21:40:54.804Z,14.40
2023-05-21T21:43:21.732Z,14.40
2023-05-21T21:45:48.744Z,14.50
2023-05-21T21:48:16.634Z,14.60
2023-05-21T21:50:43.532Z,14.60
2023-05-21T21:53:12.764Z,14.50
2023-05-21T21:55:39.776Z,14.60
2023-05-21T21:58:07.119Z,14.50
2023-05-21T22:00:34.085Z,14.60
2023-05-21T22:03:01.221Z,14.60
2023-05-21T22:05:30.840Z,14.60
2023-05-21T22:07:57.932Z,14.60
2023-05-21T22:10:24.851Z,14.70
2023-05-21T22:12:51.758Z,14.60
2023-05-21T22:15:23.001Z,14.60
2023-05-21T22:17:50.282Z,14.60
2023-05-21T22:20:17.847Z,14.60
2023-05-21T22:22:46.161Z,14.60
2023-05-21T22:25:13.433Z,14.60
2023-05-21T22:27:40.649Z,14.50
2023-05-21T22:30:08.379Z,14.50
2023-05-21T22:32:35.341Z,14.50
2023-05-21T22:35:02.625Z,14.50
2023-05-21T22:37:29.677Z,14.50
2023-05-21T22:39:57.816Z,14.50
2023-05-21T22:42:25.850Z,14.50
2023-05-21T22:44:52.859Z,14.50
2023-05-21T22:47:24.004Z,14.60
2023-05-21T22:49:53.902Z,14.70
2023-05-21T22:52:23.830Z,14.80
2023-05-21T22:54:54.800Z,14.80
2023-05-21T22:57:22.003Z,14.80
2023-05-21T22:59:48.953Z,14.80
2023-05-21T23:02:16.755Z,14.80
2023-05-21T23:04:44.701Z,14.90
2023-05-21T23:07:12.386Z,14.80
2023-05-21T23:09:39.520Z,14.80
2023-05-21T23:12:06.940Z,14.70
2023-05-21T23:14:34.186Z,14.70
2023-05-21T23:17:04.635Z,14.60
2023-05-21T23:19:33.004Z,14.50
2023-05-21T23:22:00.647Z,14.50
2023-05-21T23:24:29.663Z,14.40
2023-05-21T23:27:02.027Z,14.30
2023-05-21T23:29:30.422Z,14.30
2023-05-21T23:31:57.655Z,14.20
2023-05-21T23:34:25.132Z,14.20
2023-05-21T23:36:52.342Z,14.20
2023-05-21T23:39:19.302Z,14.20
2023-05-21T23:41:46.658Z,14.10
2023-05-21T23:44:13.682Z,14.10
2023-05-21T23:46:40.686Z,14.10
2023-05-21T23:49:07.657Z,14.10
2023-05-21T23:51:34.691Z,14.10
2023-05-21T23:54:01.696Z,14.00
2023-05-21T23:56:30.441Z,14.00
2023-05-21T23:58:57.520Z,13.90
